sensor_id;sensor_type;location;lat;lon;timestamp;temperature;humidity
4985;DHT22;2509;49.902;8.600;2022-12-20T00:02:16;0.90;99.90
4985;DHT22;2509;49.902;8.600;2022-12-20T00:05:18;0.90;99.90
4985;DHT22;2509;49.902;8.600;2022-12-20T00:08:19;0.90;99.90
4985;DHT22;2509;49.902;8.600;2022-12-20T00:11:23;0.90;99.90
4985;DHT22;2509;49.902;8.600;2022-12-20T00:14:25;0.90;99.90
4985;DHT22;2509;49.902;8.600;2022-12-20T00:17:27;0.90;99.90
4985;DHT22;2509;49.902;8.600;2022-12-20T00:20:29;0.90;99.90
4985;DHT22;2509;49.902;8.600;2022-12-20T00:23:31;1.00;99.90
4985;DHT22;2509;49.902;8.600;2022-12-20T00:26:35;1.00;99.90
4985;DHT22;2509;49.902;8.600;2022-12-20T00:29:37;1.10;99.90
4985;DHT22;2509;49.902;8.600;2022-12-20T00:32:39;1.10;99.90
4985;DHT22;2509;49.902;8.600;2022-12-20T00:35:41;1.10;99.90
4985;DHT22;2509;49.902;8.600;2022-12-20T00:38:44;1.10;99.90
4985;DHT22;2509;49.902;8.600;2022-12-20T00:41:47;1.10;99.90
4985;DHT22;2509;49.902;8.600;2022-12-20T00:44:49;1.00;99.90
4985;DHT22;2509;49.902;8.600;2022-12-20T00:47:51;1.00;99.90
4985;DHT22;2509;49.902;8.600;2022-12-20T00:50:57;1.00;99.90
4985;DHT22;2509;49.902;8.600;2022-12-20T00:53:59;1.00;99.90
4985;DHT22;2509;49.902;8.600;2022-12-20T00:57:02;1.00;99.90
4985;DHT22;2509;49.902;8.600;2022-12-20T01:00:05;1.00;99.90
4985;DHT22;2509;49.902;8.600;2022-12-20T01:03:07;1.00;99.90
4985;DHT22;2509;49.902;8.600;2022-12-20T01:06:10;1.00;99.90
4985;DHT22;2509;49.902;8.600;2022-12-20T01:09:12;1.00;99.90
4985;DHT22;2509;49.902;8.600;2022-12-20T01:12:15;1.00;99.90
4985;DHT22;2509;49.902;8.600;2022-12-20T01:15:17;1.00;99.90
4985;DHT22;2509;49.902;8.600;2022-12-20T01:18:18;1.00;99.90
4985;DHT22;2509;49.902;8.600;2022-12-20T01:21:22;1.00;99.90
4985;DHT22;2509;49.902;8.600;2022-12-20T01:24:24;1.00;99.90
4985;DHT22;2509;49.902;8.600;2022-12-20T01:27:27;1.00;99.90
4985;DHT22;2509;49.902;8.600;2022-12-20T01:30:29;1.00;99.90
4985;DHT22;2509;49.902;8.600;2022-12-20T01:33:31;1.00;99.90
4985;DHT22;2509;49.902;8.600;2022-12-20T01:36:34;1.00;99.90
4985;DHT22;2509;49.902;8.600;2022-12-20T01:39:37;1.00;99.90
4985;DHT22;2509;49.902;8.600;2022-12-20T01:42:40;1.00;99.90
4985;DHT22;2509;49.902;8.600;2022-12-20T01:45:42;1.00;99.90
4985;DHT22;2509;49.902;8.600;2022-12-20T01:48:47;1.00;99.90
4985;DHT22;2509;49.902;8.600;2022-12-20T01:51:53;1.00;99.90
4985;DHT22;2509;49.902;8.600;2022-12-20T01:55:02;1.00;99.90
4985;DHT22;2509;49.902;8.600;2022-12-20T01:58:08;1.00;99.90
4985;DHT22;2509;49.902;8.600;2022-12-20T02:01:10;1.00;99.90
4985;DHT22;2509;49.902;8.600;2022-12-20T02:04:12;1.00;99.90
4985;DHT22;2509;49.902;8.600;2022-12-20T02:07:19;1.00;99.90
4985;DHT22;2509;49.902;8.600;2022-12-20T02:10:23;1.00;99.90
4985;DHT22;2509;49.902;8.600;2022-12-20T02:13:36;1.00;99.90
4985;DHT22;2509;49.902;8.600;2022-12-20T02:16:47;1.00;99.90
4985;DHT22;2509;49.902;8.600;2022-12-20T02:20:20;1.00;99.90
4985;DHT22;2509;49.902;8.600;2022-12-20T02:27:24;1.00;99.90
4985;DHT22;2509;49.902;8.600;2022-12-20T02:30:33;1.00;99.90
4985;DHT22;2509;49.902;8.600;2022-12-20T02:33:38;1.00;99.90
4985;DHT22;2509;49.902;8.600;2022-12-20T02:36:42;1.00;99.90
4985;DHT22;2509;49.902;8.600;2022-12-20T02:39:45;1.00;99.90
4985;DHT22;2509;49.902;8.600;2022-12-20T02:42:49;1.10;99.90
4985;DHT22;2509;49.902;8.600;2022-12-20T02:45:55;1.10;99.90
4985;DHT22;2509;49.902;8.600;2022-12-20T02:49:01;1.10;99.90
4985;DHT22;2509;49.902;8.600;2022-12-20T02:52:04;1.10;99.90
4985;DHT22;2509;49.902;8.600;2022-12-20T02:55:08;1.10;99.90
4985;DHT22;2509;49.902;8.600;2022-12-20T02:58:15;1.10;99.90
4985;DHT22;2509;49.902;8.600;2022-12-20T03:01:22;1.10;99.90
4985;DHT22;2509;49.902;8.600;2022-12-20T03:04:27;1.10;99.90
4985;DHT22;2509;49.902;8.600;2022-12-20T03:07:29;1.20;99.90
4985;DHT22;2509;49.902;8.600;2022-12-20T03:10:34;1.20;99.90
4985;DHT22;2509;49.902;8.600;2022-12-20T03:13:35;1.20;99.90
4985;DHT22;2509;49.902;8.600;2022-12-20T03:16:39;1.10;99.90
4985;DHT22;2509;49.902;8.600;2022-12-20T03:19:40;1.20;99.90
4985;DHT22;2509;49.902;8.600;2022-12-20T03:22:42;1.20;99.90
4985;DHT22;2509;49.902;8.600;2022-12-20T03:25:44;1.10;99.90
4985;DHT22;2509;49.902;8.600;2022-12-20T03:28:46;1.10;99.90
4985;DHT22;2509;49.902;8.600;2022-12-20T03:31:49;1.20;99.90
4985;DHT22;2509;49.902;8.600;2022-12-20T03:34:50;1.20;99.90
4985;DHT22;2509;49.902;8.600;2022-12-20T03:37:52;1.20;99.90
4985;DHT22;2509;49.902;8.600;2022-12-20T03:40:55;1.20;99.90
4985;DHT22;2509;49.902;8.600;2022-12-20T03:43:56;1.20;99.90
4985;DHT22;2509;49.902;8.600;2022-12-20T03:46:59;1.20;99.90
4985;DHT22;2509;49.902;8.600;2022-12-20T03:50:01;1.30;99.90
4985;DHT22;2509;49.902;8.600;2022-12-20T03:53:03;1.30;99.90
4985;DHT22;2509;49.902;8.600;2022-12-20T03:56:05;1.30;99.90
4985;DHT22;2509;49.902;8.600;2022-12-20T03:59:07;1.30;99.90
4985;DHT22;2509;49.902;8.600;2022-12-20T04:02:10;1.30;99.90
4985;DHT22;2509;49.902;8.600;2022-12-20T04:05:12;1.40;99.90
4985;DHT22;2509;49.902;8.600;2022-12-20T04:08:14;1.40;99.90
4985;DHT22;2509;49.902;8.600;2022-12-20T04:11:16;1.40;99.90
4985;DHT22;2509;49.902;8.600;2022-12-20T04:14:17;1.30;99.90
4985;DHT22;2509;49.902;8.600;2022-12-20T04:17:21;1.30;99.90
4985;DHT22;2509;49.902;8.600;2022-12-20T04:20:22;1.30;99.90
4985;DHT22;2509;49.902;8.600;2022-12-20T04:23:24;1.30;99.90
4985;DHT22;2509;49.902;8.600;2022-12-20T04:26:26;1.30;99.90
4985;DHT22;2509;49.902;8.600;2022-12-20T04:29:28;1.30;99.90
4985;DHT22;2509;49.902;8.600;2022-12-20T04:32:31;1.30;99.90
4985;DHT22;2509;49.902;8.600;2022-12-20T04:35:33;1.30;99.90
4985;DHT22;2509;49.902;8.600;2022-12-20T04:38:35;1.20;99.90
4985;DHT22;2509;49.902;8.600;2022-12-20T04:41:37;1.20;99.90
4985;DHT22;2509;49.902;8.600;2022-12-20T04:44:38;1.20;99.90
4985;DHT22;2509;49.902;8.600;2022-12-20T04:47:42;1.20;99.90
4985;DHT22;2509;49.902;8.600;2022-12-20T04:50:46;1.20;99.90
4985;DHT22;2509;49.902;8.600;2022-12-20T04:53:48;1.10;99.90
4985;DHT22;2509;49.902;8.600;2022-12-20T04:56:50;1.10;99.90
4985;DHT22;2509;49.902;8.600;2022-12-20T04:59:51;1.10;99.90
4985;DHT22;2509;49.902;8.600;2022-12-20T05:02:55;1.20;99.90
4985;DHT22;2509;49.902;8.600;2022-12-20T05:05:56;1.20;99.90
4985;DHT22;2509;49.902;8.600;2022-12-20T05:08:58;1.20;99.90
4985;DHT22;2509;49.902;8.600;2022-12-20T05:12:00;1.20;99.90
4985;DHT22;2509;49.902;8.600;2022-12-20T05:15:02;1.20;99.90
4985;DHT22;2509;49.902;8.600;2022-12-20T05:18:05;1.30;99.90
4985;DHT22;2509;49.902;8.600;2022-12-20T05:21:07;1.30;99.90
4985;DHT22;2509;49.902;8.600;2022-12-20T05:24:26;1.40;99.90
4985;DHT22;2509;49.902;8.600;2022-12-20T05:27:45;1.40;99.90
4985;DHT22;2509;49.902;8.600;2022-12-20T05:30:47;1.40;99.90
4985;DHT22;2509;49.902;8.600;2022-12-20T05:33:50;1.40;99.90
4985;DHT22;2509;49.902;8.600;2022-12-20T05:36:52;1.40;99.90
4985;DHT22;2509;49.902;8.600;2022-12-20T05:39:54;1.40;99.90
4985;DHT22;2509;49.902;8.600;2022-12-20T05:42:55;1.50;99.90
4985;DHT22;2509;49.902;8.600;2022-12-20T05:45:57;1.40;99.90
4985;DHT22;2509;49.902;8.600;2022-12-20T05:49:01;1.40;99.90
4985;DHT22;2509;49.902;8.600;2022-12-20T05:52:02;1.40;99.90
4985;DHT22;2509;49.902;8.600;2022-12-20T05:55:05;1.40;99.90
4985;DHT22;2509;49.902;8.600;2022-12-20T05:58:07;1.40;99.90
4985;DHT22;2509;49.902;8.600;2022-12-20T06:01:12;1.50;99.90
4985;DHT22;2509;49.902;8.600;2022-12-20T06:04:15;1.50;99.90
4985;DHT22;2509;49.902;8.600;2022-12-20T06:07:17;1.50;99.90
4985;DHT22;2509;49.902;8.600;2022-12-20T06:10:19;1.50;99.90
4985;DHT22;2509;49.902;8.600;2022-12-20T06:13:21;1.50;99.90
4985;DHT22;2509;49.902;8.600;2022-12-20T06:16:23;1.50;99.90
4985;DHT22;2509;49.902;8.600;2022-12-20T06:19:26;1.50;99.90
4985;DHT22;2509;49.902;8.600;2022-12-20T06:22:28;1.50;99.90
4985;DHT22;2509;49.902;8.600;2022-12-20T06:25:30;1.60;99.90
4985;DHT22;2509;49.902;8.600;2022-12-20T06:28:32;1.60;99.90
4985;DHT22;2509;49.902;8.600;2022-12-20T06:31:34;1.70;99.90
4985;DHT22;2509;49.902;8.600;2022-12-20T06:34:37;1.70;99.90
4985;DHT22;2509;49.902;8.600;2022-12-20T06:37:39;1.80;99.90
4985;DHT22;2509;49.902;8.600;2022-12-20T06:40:40;1.70;99.90
4985;DHT22;2509;49.902;8.600;2022-12-20T06:43:42;1.70;99.90
4985;DHT22;2509;49.902;8.600;2022-12-20T06:46:44;1.70;99.90
4985;DHT22;2509;49.902;8.600;2022-12-20T06:49:47;1.70;99.90
4985;DHT22;2509;49.902;8.600;2022-12-20T06:52:49;1.70;99.90
4985;DHT22;2509;49.902;8.600;2022-12-20T06:55:51;1.60;99.90
4985;DHT22;2509;49.902;8.600;2022-12-20T06:58:52;1.60;99.90
4985;DHT22;2509;49.902;8.600;2022-12-20T07:01:54;1.70;99.90
4985;DHT22;2509;49.902;8.600;2022-12-20T07:04:57;1.70;99.90
4985;DHT22;2509;49.902;8.600;2022-12-20T07:07:59;1.70;99.90
4985;DHT22;2509;49.902;8.600;2022-12-20T07:11:03;1.70;99.90
4985;DHT22;2509;49.902;8.600;2022-12-20T07:14:06;1.60;99.90
4985;DHT22;2509;49.902;8.600;2022-12-20T07:17:08;1.60;99.90
4985;DHT22;2509;49.902;8.600;2022-12-20T07:20:11;1.60;99.90
4985;DHT22;2509;49.902;8.600;2022-12-20T07:23:13;1.60;99.90
4985;DHT22;2509;49.902;8.600;2022-12-20T07:26:15;1.60;99.90
4985;DHT22;2509;49.902;8.600;2022-12-20T07:29:16;1.60;99.90
4985;DHT22;2509;49.902;8.600;2022-12-20T07:32:18;1.60;99.90
4985;DHT22;2509;49.902;8.600;2022-12-20T07:35:21;1.60;99.90
4985;DHT22;2509;49.902;8.600;2022-12-20T07:38:23;1.60;99.90
4985;DHT22;2509;49.902;8.600;2022-12-20T07:41:25;1.70;99.90
4985;DHT22;2509;49.902;8.600;2022-12-20T07:44:26;1.70;99.90
4985;DHT22;2509;49.902;8.600;2022-12-20T07:47:28;1.80;99.90
4985;DHT22;2509;49.902;8.600;2022-12-20T07:50:32;1.80;99.90
4985;DHT22;2509;49.902;8.600;2022-12-20T07:53:39;1.90;99.90
4985;DHT22;2509;49.902;8.600;2022-12-20T07:56:44;1.90;99.90
4985;DHT22;2509;49.902;8.600;2022-12-20T07:59:48;1.90;99.90
4985;DHT22;2509;49.902;8.600;2022-12-20T08:02:54;1.90;99.90
4985;DHT22;2509;49.902;8.600;2022-12-20T08:05:59;1.90;99.90
4985;DHT22;2509;49.902;8.600;2022-12-20T08:09:04;2.00;99.90
4985;DHT22;2509;49.902;8.600;2022-12-20T08:12:07;1.90;99.90
4985;DHT22;2509;49.902;8.600;2022-12-20T08:15:10;1.90;99.90
4985;DHT22;2509;49.902;8.600;2022-12-20T08:18:12;1.90;99.90
4985;DHT22;2509;49.902;8.600;2022-12-20T08:21:17;1.80;99.90
4985;DHT22;2509;49.902;8.600;2022-12-20T08:24:18;1.80;99.90
4985;DHT22;2509;49.902;8.600;2022-12-20T08:27:20;1.80;99.90
4985;DHT22;2509;49.902;8.600;2022-12-20T08:30:22;1.80;99.90
4985;DHT22;2509;49.902;8.600;2022-12-20T08:33:24;1.80;99.90
4985;DHT22;2509;49.902;8.600;2022-12-20T08:36:27;1.90;99.90
4985;DHT22;2509;49.902;8.600;2022-12-20T08:39:29;2.00;99.90
4985;DHT22;2509;49.902;8.600;2022-12-20T08:42:30;2.10;99.90
4985;DHT22;2509;49.902;8.600;2022-12-20T08:45:32;2.20;99.90
4985;DHT22;2509;49.902;8.600;2022-12-20T08:48:34;2.30;99.90
4985;DHT22;2509;49.902;8.600;2022-12-20T08:51:38;2.30;99.90
4985;DHT22;2509;49.902;8.600;2022-12-20T08:54:39;2.30;99.90
4985;DHT22;2509;49.902;8.600;2022-12-20T08:57:41;2.40;99.90
4985;DHT22;2509;49.902;8.600;2022-12-20T09:00:43;2.40;99.90
4985;DHT22;2509;49.902;8.600;2022-12-20T09:03:45;2.50;99.90
4985;DHT22;2509;49.902;8.600;2022-12-20T09:06:48;2.50;99.90
4985;DHT22;2509;49.902;8.600;2022-12-20T09:09:50;2.60;99.90
4985;DHT22;2509;49.902;8.600;2022-12-20T09:12:52;2.70;99.90
4985;DHT22;2509;49.902;8.600;2022-12-20T09:15:54;2.70;99.90
4985;DHT22;2509;49.902;8.600;2022-12-20T09:18:57;2.70;99.90
4985;DHT22;2509;49.902;8.600;2022-12-20T09:22:01;2.80;99.90
4985;DHT22;2509;49.902;8.600;2022-12-20T09:25:04;2.80;99.90
4985;DHT22;2509;49.902;8.600;2022-12-20T09:28:06;2.80;99.90
4985;DHT22;2509;49.902;8.600;2022-12-20T09:31:11;2.80;99.90
4985;DHT22;2509;49.902;8.600;2022-12-20T09:34:13;2.80;99.90
4985;DHT22;2509;49.902;8.600;2022-12-20T09:37:16;2.90;99.90
4985;DHT22;2509;49.902;8.600;2022-12-20T09:40:20;2.90;99.90
4985;DHT22;2509;49.902;8.600;2022-12-20T09:43:23;2.90;99.90
4985;DHT22;2509;49.902;8.600;2022-12-20T09:46:25;3.00;99.90
4985;DHT22;2509;49.902;8.600;2022-12-20T09:49:30;3.00;99.90
4985;DHT22;2509;49.902;8.600;2022-12-20T09:52:46;3.00;99.90
4985;DHT22;2509;49.902;8.600;2022-12-20T09:55:55;3.00;99.90
4985;DHT22;2509;49.902;8.600;2022-12-20T09:59:01;3.10;99.90
4985;DHT22;2509;49.902;8.600;2022-12-20T10:02:08;3.10;99.90
4985;DHT22;2509;49.902;8.600;2022-12-20T10:05:13;3.10;99.90
4985;DHT22;2509;49.902;8.600;2022-12-20T10:08:25;3.20;99.90
4985;DHT22;2509;49.902;8.600;2022-12-20T10:11:57;3.20;99.90
4985;DHT22;2509;49.902;8.600;2022-12-20T10:15:12;3.30;99.90
4985;DHT22;2509;49.902;8.600;2022-12-20T10:18:27;3.30;99.90
4985;DHT22;2509;49.902;8.600;2022-12-20T10:21:46;3.40;99.90
4985;DHT22;2509;49.902;8.600;2022-12-20T10:24:57;3.40;99.90
4985;DHT22;2509;49.902;8.600;2022-12-20T10:28:04;3.40;99.90
4985;DHT22;2509;49.902;8.600;2022-12-20T10:31:13;3.50;99.90
4985;DHT22;2509;49.902;8.600;2022-12-20T10:34:15;3.50;99.90
4985;DHT22;2509;49.902;8.600;2022-12-20T10:37:17;3.50;99.90
4985;DHT22;2509;49.902;8.600;2022-12-20T10:40:27;3.60;99.90
4985;DHT22;2509;49.902;8.600;2022-12-20T10:43:38;3.60;99.90
4985;DHT22;2509;49.902;8.600;2022-12-20T10:46:43;3.60;99.90
4985;DHT22;2509;49.902;8.600;2022-12-20T10:49:45;3.70;99.90
4985;DHT22;2509;49.902;8.600;2022-12-20T10:53:16;3.70;99.90
4985;DHT22;2509;49.902;8.600;2022-12-20T10:56:23;3.70;99.90
4985;DHT22;2509;49.902;8.600;2022-12-20T10:59:31;3.70;99.90
4985;DHT22;2509;49.902;8.600;2022-12-20T11:02:35;3.80;99.90
4985;DHT22;2509;49.902;8.600;2022-12-20T11:05:37;3.80;99.90
4985;DHT22;2509;49.902;8.600;2022-12-20T11:08:40;3.90;99.90
4985;DHT22;2509;49.902;8.600;2022-12-20T11:11:59;3.90;99.90
4985;DHT22;2509;49.902;8.600;2022-12-20T11:15:10;3.90;99.90
4985;DHT22;2509;49.902;8.600;2022-12-20T11:18:16;4.00;99.90
4985;DHT22;2509;49.902;8.600;2022-12-20T11:21:25;4.10;99.90
4985;DHT22;2509;49.902;8.600;2022-12-20T11:24:35;4.00;99.90
4985;DHT22;2509;49.902;8.600;2022-12-20T11:27:48;4.10;99.90
4985;DHT22;2509;49.902;8.600;2022-12-20T11:31:00;4.20;99.90
4985;DHT22;2509;49.902;8.600;2022-12-20T11:34:17;4.30;99.90
4985;DHT22;2509;49.902;8.600;2022-12-20T11:37:22;4.30;99.90
4985;DHT22;2509;49.902;8.600;2022-12-20T11:40:30;4.40;99.90
4985;DHT22;2509;49.902;8.600;2022-12-20T11:43:46;4.40;99.90
4985;DHT22;2509;49.902;8.600;2022-12-20T11:47:07;4.50;99.90
4985;DHT22;2509;49.902;8.600;2022-12-20T11:50:18;4.50;99.90
4985;DHT22;2509;49.902;8.600;2022-12-20T11:53:31;4.50;99.90
4985;DHT22;2509;49.902;8.600;2022-12-20T11:56:36;4.60;99.90
4985;DHT22;2509;49.902;8.600;2022-12-20T11:59:41;4.70;99.90
4985;DHT22;2509;49.902;8.600;2022-12-20T12:02:47;4.80;99.90
4985;DHT22;2509;49.902;8.600;2022-12-20T12:05:53;4.90;99.90
4985;DHT22;2509;49.902;8.600;2022-12-20T12:09:05;5.00;99.90
4985;DHT22;2509;49.902;8.600;2022-12-20T12:12:13;5.00;99.90
4985;DHT22;2509;49.902;8.600;2022-12-20T12:15:37;5.10;99.90
4985;DHT22;2509;49.902;8.600;2022-12-20T12:18:40;5.00;99.90
4985;DHT22;2509;49.902;8.600;2022-12-20T12:21:46;5.10;99.90
4985;DHT22;2509;49.902;8.600;2022-12-20T12:24:53;5.00;99.90
4985;DHT22;2509;49.902;8.600;2022-12-20T12:27:56;5.00;99.90
4985;DHT22;2509;49.902;8.600;2022-12-20T12:31:05;5.10;99.90
4985;DHT22;2509;49.902;8.600;2022-12-20T12:34:15;5.00;99.90
4985;DHT22;2509;49.902;8.600;2022-12-20T12:37:38;5.00;99.90
4985;DHT22;2509;49.902;8.600;2022-12-20T12:41:03;5.00;99.90
4985;DHT22;2509;49.902;8.600;2022-12-20T12:44:29;5.00;99.90
4985;DHT22;2509;49.902;8.600;2022-12-20T12:47:38;5.00;99.90
4985;DHT22;2509;49.902;8.600;2022-12-20T12:50:44;5.00;99.90
4985;DHT22;2509;49.902;8.600;2022-12-20T12:53:49;5.00;99.90
4985;DHT22;2509;49.902;8.600;2022-12-20T12:56:52;5.00;99.90
4985;DHT22;2509;49.902;8.600;2022-12-20T12:59:55;5.00;99.90
4985;DHT22;2509;49.902;8.600;2022-12-20T13:02:58;5.00;99.90
4985;DHT22;2509;49.902;8.600;2022-12-20T13:13:46;4.90;99.90
4985;DHT22;2509;49.902;8.600;2022-12-20T13:16:49;4.90;99.90
4985;DHT22;2509;49.902;8.600;2022-12-20T13:19:52;4.90;99.90
4985;DHT22;2509;49.902;8.600;2022-12-20T13:23:11;4.90;99.90
4985;DHT22;2509;49.902;8.600;2022-12-20T13:26:48;4.90;99.90
4985;DHT22;2509;49.902;8.600;2022-12-20T13:33:38;4.90;99.90
4985;DHT22;2509;49.902;8.600;2022-12-20T13:36:41;4.80;99.90
4985;DHT22;2509;49.902;8.600;2022-12-20T13:39:46;4.90;99.90
4985;DHT22;2509;49.902;8.600;2022-12-20T13:42:51;4.80;99.90
4985;DHT22;2509;49.902;8.600;2022-12-20T13:45:57;4.90;99.90
4985;DHT22;2509;49.902;8.600;2022-12-20T13:49:02;4.80;99.90
4985;DHT22;2509;49.902;8.600;2022-12-20T13:52:23;4.80;99.90
4985;DHT22;2509;49.902;8.600;2022-12-20T13:55:33;4.70;99.90
4985;DHT22;2509;49.902;8.600;2022-12-20T13:58:35;4.80;99.90
4985;DHT22;2509;49.902;8.600;2022-12-20T14:01:47;4.70;99.90
4985;DHT22;2509;49.902;8.600;2022-12-20T14:04:56;4.70;99.90
4985;DHT22;2509;49.902;8.600;2022-12-20T14:08:00;4.70;99.90
4985;DHT22;2509;49.902;8.600;2022-12-20T14:11:08;4.70;99.90
4985;DHT22;2509;49.902;8.600;2022-12-20T14:14:11;4.60;99.90
4985;DHT22;2509;49.902;8.600;2022-12-20T14:17:15;4.50;99.90
4985;DHT22;2509;49.902;8.600;2022-12-20T14:20:26;4.50;99.90
4985;DHT22;2509;49.902;8.600;2022-12-20T14:23:35;4.50;99.90
4985;DHT22;2509;49.902;8.600;2022-12-20T14:26:41;4.50;99.90
4985;DHT22;2509;49.902;8.600;2022-12-20T14:29:44;4.40;99.90
4985;DHT22;2509;49.902;8.600;2022-12-20T14:32:48;4.40;99.90
4985;DHT22;2509;49.902;8.600;2022-12-20T14:35:51;4.50;99.90
4985;DHT22;2509;49.902;8.600;2022-12-20T14:38:53;4.50;99.90
4985;DHT22;2509;49.902;8.600;2022-12-20T14:41:55;4.50;99.90
4985;DHT22;2509;49.902;8.600;2022-12-20T14:45:15;4.50;99.90
4985;DHT22;2509;49.902;8.600;2022-12-20T14:48:17;4.40;99.90
4985;DHT22;2509;49.902;8.600;2022-12-20T14:51:20;4.40;99.90
4985;DHT22;2509;49.902;8.600;2022-12-20T14:54:26;4.40;99.90
4985;DHT22;2509;49.902;8.600;2022-12-20T14:57:31;4.40;99.90
4985;DHT22;2509;49.902;8.600;2022-12-20T15:00:54;4.40;99.90
4985;DHT22;2509;49.902;8.600;2022-12-20T15:03:58;4.40;99.90
4985;DHT22;2509;49.902;8.600;2022-12-20T15:07:02;4.40;99.90
4985;DHT22;2509;49.902;8.600;2022-12-20T15:10:04;4.40;99.90
4985;DHT22;2509;49.902;8.600;2022-12-20T15:13:10;4.30;99.90
4985;DHT22;2509;49.902;8.600;2022-12-20T15:16:14;4.30;99.90
4985;DHT22;2509;49.902;8.600;2022-12-20T15:19:16;4.20;99.90
4985;DHT22;2509;49.902;8.600;2022-12-20T15:22:19;4.30;99.90
4985;DHT22;2509;49.902;8.600;2022-12-20T15:25:21;4.20;99.90
4985;DHT22;2509;49.902;8.600;2022-12-20T15:28:24;4.20;99.90
4985;DHT22;2509;49.902;8.600;2022-12-20T15:31:27;4.10;99.90
4985;DHT22;2509;49.902;8.600;2022-12-20T15:34:33;4.00;99.90
4985;DHT22;2509;49.902;8.600;2022-12-20T15:37:37;4.00;99.90
4985;DHT22;2509;49.902;8.600;2022-12-20T15:40:39;4.00;99.90
4985;DHT22;2509;49.902;8.600;2022-12-20T15:43:40;3.90;99.90
4985;DHT22;2509;49.902;8.600;2022-12-20T15:46:42;3.90;99.90
4985;DHT22;2509;49.902;8.600;2022-12-20T15:49:44;3.90;99.90
4985;DHT22;2509;49.902;8.600;2022-12-20T15:52:47;3.90;99.90
4985;DHT22;2509;49.902;8.600;2022-12-20T15:55:50;3.90;99.90
4985;DHT22;2509;49.902;8.600;2022-12-20T15:58:52;3.90;99.90
4985;DHT22;2509;49.902;8.600;2022-12-20T16:01:54;3.90;99.90
4985;DHT22;2509;49.902;8.600;2022-12-20T16:04:56;3.90;99.90
4985;DHT22;2509;49.902;8.600;2022-12-20T16:07:59;3.90;99.90
4985;DHT22;2509;49.902;8.600;2022-12-20T16:11:01;3.90;99.90
4985;DHT22;2509;49.902;8.600;2022-12-20T16:14:03;3.90;99.90
4985;DHT22;2509;49.902;8.600;2022-12-20T16:17:05;3.90;99.90
4985;DHT22;2509;49.902;8.600;2022-12-20T16:20:08;3.90;99.90
4985;DHT22;2509;49.902;8.600;2022-12-20T16:23:15;3.80;99.90
4985;DHT22;2509;49.902;8.600;2022-12-20T16:26:18;3.80;99.90
4985;DHT22;2509;49.902;8.600;2022-12-20T16:29:20;3.80;99.90
4985;DHT22;2509;49.902;8.600;2022-12-20T16:32:22;3.80;99.90
4985;DHT22;2509;49.902;8.600;2022-12-20T16:35:27;3.80;99.90
4985;DHT22;2509;49.902;8.600;2022-12-20T16:38:30;3.80;99.90
4985;DHT22;2509;49.902;8.600;2022-12-20T16:41:32;3.80;99.90
4985;DHT22;2509;49.902;8.600;2022-12-20T16:44:37;3.80;99.90
4985;DHT22;2509;49.902;8.600;2022-12-20T16:48:11;3.70;99.90
4985;DHT22;2509;49.902;8.600;2022-12-20T16:51:31;3.70;99.90
4985;DHT22;2509;49.902;8.600;2022-12-20T16:56:50;3.70;99.90
4985;DHT22;2509;49.902;8.600;2022-12-20T17:01:48;3.70;99.90
4985;DHT22;2509;49.902;8.600;2022-12-20T17:04:50;3.70;99.90
4985;DHT22;2509;49.902;8.600;2022-12-20T17:07:52;3.70;99.90
4985;DHT22;2509;49.902;8.600;2022-12-20T17:10:55;3.70;99.90
4985;DHT22;2509;49.902;8.600;2022-12-20T17:13:57;3.70;99.90
4985;DHT22;2509;49.902;8.600;2022-12-20T17:16:59;3.80;99.90
4985;DHT22;2509;49.902;8.600;2022-12-20T17:20:01;3.70;99.90
4985;DHT22;2509;49.902;8.600;2022-12-20T17:23:04;3.70;99.90
4985;DHT22;2509;49.902;8.600;2022-12-20T17:26:12;3.70;99.90
4985;DHT22;2509;49.902;8.600;2022-12-20T17:29:15;3.80;99.90
4985;DHT22;2509;49.902;8.600;2022-12-20T17:32:20;3.90;99.90
4985;DHT22;2509;49.902;8.600;2022-12-20T17:35:25;3.90;99.90
4985;DHT22;2509;49.902;8.600;2022-12-20T17:38:27;3.90;99.90
4985;DHT22;2509;49.902;8.600;2022-12-20T17:41:31;3.90;99.90
4985;DHT22;2509;49.902;8.600;2022-12-20T17:44:33;3.90;99.90
4985;DHT22;2509;49.902;8.600;2022-12-20T17:47:35;3.90;99.90
4985;DHT22;2509;49.902;8.600;2022-12-20T17:50:37;3.80;99.90
4985;DHT22;2509;49.902;8.600;2022-12-20T17:53:39;3.80;99.90
4985;DHT22;2509;49.902;8.600;2022-12-20T17:56:42;3.90;99.90
4985;DHT22;2509;49.902;8.600;2022-12-20T17:59:44;3.90;99.90
4985;DHT22;2509;49.902;8.600;2022-12-20T18:02:46;3.90;99.90
4985;DHT22;2509;49.902;8.600;2022-12-20T18:05:48;3.90;99.90
4985;DHT22;2509;49.902;8.600;2022-12-20T18:08:51;3.90;99.90
4985;DHT22;2509;49.902;8.600;2022-12-20T18:11:54;3.80;99.90
4985;DHT22;2509;49.902;8.600;2022-12-20T18:14:56;3.90;99.90
4985;DHT22;2509;49.902;8.600;2022-12-20T18:17:58;3.90;99.90
4985;DHT22;2509;49.902;8.600;2022-12-20T18:21:01;3.80;99.90
4985;DHT22;2509;49.902;8.600;2022-12-20T18:24:03;3.80;99.90
4985;DHT22;2509;49.902;8.600;2022-12-20T18:27:06;3.90;99.90
4985;DHT22;2509;49.902;8.600;2022-12-20T18:30:09;3.90;99.90
4985;DHT22;2509;49.902;8.600;2022-12-20T18:33:12;3.90;99.90
4985;DHT22;2509;49.902;8.600;2022-12-20T18:36:15;4.00;99.90
4985;DHT22;2509;49.902;8.600;2022-12-20T18:39:17;4.00;99.90
4985;DHT22;2509;49.902;8.600;2022-12-20T18:42:20;4.00;99.90
4985;DHT22;2509;49.902;8.600;2022-12-20T18:45:22;4.10;99.90
4985;DHT22;2509;49.902;8.600;2022-12-20T18:48:23;4.10;99.90
4985;DHT22;2509;49.902;8.600;2022-12-20T18:51:27;4.10;99.90
4985;DHT22;2509;49.902;8.600;2022-12-20T18:54:29;4.00;99.90
4985;DHT22;2509;49.902;8.600;2022-12-20T18:57:32;4.00;99.90
4985;DHT22;2509;49.902;8.600;2022-12-20T19:00:34;4.10;99.90
4985;DHT22;2509;49.902;8.600;2022-12-20T19:03:36;4.10;99.90
4985;DHT22;2509;49.902;8.600;2022-12-20T19:06:38;4.00;99.90
4985;DHT22;2509;49.902;8.600;2022-12-20T19:09:40;4.00;99.90
4985;DHT22;2509;49.902;8.600;2022-12-20T19:12:43;4.00;99.90
4985;DHT22;2509;49.902;8.600;2022-12-20T19:15:45;4.10;99.90
4985;DHT22;2509;49.902;8.600;2022-12-20T19:18:48;4.10;99.90
4985;DHT22;2509;49.902;8.600;2022-12-20T19:21:49;4.10;99.90
4985;DHT22;2509;49.902;8.600;2022-12-20T19:24:51;4.10;99.90
4985;DHT22;2509;49.902;8.600;2022-12-20T19:27:56;4.10;99.90
4985;DHT22;2509;49.902;8.600;2022-12-20T19:31:03;4.00;99.90
4985;DHT22;2509;49.902;8.600;2022-12-20T19:34:07;4.00;99.90
4985;DHT22;2509;49.902;8.600;2022-12-20T19:37:09;3.90;99.90
4985;DHT22;2509;49.902;8.600;2022-12-20T19:40:11;3.90;99.90
4985;DHT22;2509;49.902;8.600;2022-12-20T19:43:14;3.90;99.90
4985;DHT22;2509;49.902;8.600;2022-12-20T19:46:16;3.90;99.90
4985;DHT22;2509;49.902;8.600;2022-12-20T19:49:20;3.90;99.90
4985;DHT22;2509;49.902;8.600;2022-12-20T19:52:22;3.90;99.90
4985;DHT22;2509;49.902;8.600;2022-12-20T19:55:23;3.90;99.90
4985;DHT22;2509;49.902;8.600;2022-12-20T19:58:28;3.90;99.90
4985;DHT22;2509;49.902;8.600;2022-12-20T20:01:30;3.90;99.90
4985;DHT22;2509;49.902;8.600;2022-12-20T20:04:32;3.90;99.90
4985;DHT22;2509;49.902;8.600;2022-12-20T20:07:34;3.90;99.90
4985;DHT22;2509;49.902;8.600;2022-12-20T20:10:36;3.90;99.90
4985;DHT22;2509;49.902;8.600;2022-12-20T20:13:39;3.90;99.90
4985;DHT22;2509;49.902;8.600;2022-12-20T20:16:41;3.90;99.90
4985;DHT22;2509;49.902;8.600;2022-12-20T20:19:43;4.00;99.90
4985;DHT22;2509;49.902;8.600;2022-12-20T20:22:46;4.00;99.90
4985;DHT22;2509;49.902;8.600;2022-12-20T20:25:49;4.00;99.90
4985;DHT22;2509;49.902;8.600;2022-12-20T20:28:53;4.00;99.90
4985;DHT22;2509;49.902;8.600;2022-12-20T20:31:55;4.00;99.90
4985;DHT22;2509;49.902;8.600;2022-12-20T20:34:56;4.00;99.90
4985;DHT22;2509;49.902;8.600;2022-12-20T20:37:58;4.00;99.90
4985;DHT22;2509;49.902;8.600;2022-12-20T20:41:00;4.00;99.90
4985;DHT22;2509;49.902;8.600;2022-12-20T20:44:03;4.10;99.90